createdAt,value
2018-08-06T00:02:18.562Z,1.50
2018-08-06T00:04:46.896Z,1.30
2018-08-06T00:07:15.228Z,1.30
2018-08-06T00:09:43.633Z,1.37
2018-08-06T00:12:12.002Z,1.40
2018-08-06T00:14:40.364Z,1.40
2018-08-06T00:17:09.073Z,1.20
2018-08-06T00:19:37.656Z,1.40
2018-08-06T00:22:06.560Z,1.40
2018-08-06T00:24:34.904Z,1.30
2018-08-06T00:27:03.319Z,1.43
2018-08-06T00:29:31.889Z,1.40
2018-08-06T00:32:00.508Z,1.17
2018-08-06T00:34:28.876Z,1.20
2018-08-06T00:36:57.439Z,1.43
2018-08-06T00:39:25.780Z,1.20
2018-08-06T00:41:54.164Z,1.40
2018-08-06T00:44:22.584Z,1.37
2018-08-06T00:46:50.920Z,1.30
2018-08-06T00:49:19.232Z,1.50
2018-08-06T00:51:47.641Z,1.60
2018-08-06T00:54:15.972Z,1.50
2018-08-06T00:56:44.329Z,1.10
2018-08-06T00:59:12.681Z,1.60
2018-08-06T01:01:41.163Z,1.40
2018-08-06T01:04:09.477Z,1.60
2018-08-06T01:06:37.842Z,1.70
2018-08-06T01:09:08.395Z,1.50
2018-08-06T01:11:37.030Z,1.47
2018-08-06T01:14:05.512Z,1.47
2018-08-06T01:16:33.863Z,1.50
2018-08-06T01:19:02.180Z,1.40
2018-08-06T01:21:30.516Z,1.60
2018-08-06T01:23:59.111Z,1.60
2018-08-06T01:26:27.411Z,1.43
2018-08-06T01:28:56.223Z,1.83
2018-08-06T01:31:24.578Z,1.50
2018-08-06T01:33:54.017Z,1.57
2018-08-06T01:36:22.392Z,1.30
2018-08-06T01:38:50.738Z,1.50
2018-08-06T01:41:19.087Z,1.63
2018-08-06T01:43:47.467Z,1.73
2018-08-06T01:46:15.849Z,1.60
2018-08-06T01:48:44.232Z,1.60
2018-08-06T01:51:12.566Z,1.37
2018-08-06T01:53:40.936Z,1.43
2018-08-06T01:56:09.420Z,1.70
2018-08-06T01:58:37.793Z,1.50
2018-08-06T02:01:06.248Z,1.80
2018-08-06T02:03:34.586Z,1.50
2018-08-06T02:06:02.917Z,1.30
2018-08-06T02:08:31.285Z,1.50
2018-08-06T02:10:59.628Z,1.60
2018-08-06T02:13:27.712Z,1.50
2018-08-06T02:15:56.094Z,1.70
2018-08-06T02:18:24.451Z,1.50
2018-08-06T02:20:52.896Z,1.30
2018-08-06T02:23:21.637Z,1.40
2018-08-06T02:25:50.097Z,1.40
2018-08-06T02:28:18.538Z,1.40
2018-08-06T02:30:46.956Z,1.53
2018-08-06T02:33:15.318Z,1.50
2018-08-06T02:35:43.679Z,1.60
2018-08-06T02:38:12.084Z,1.57
2018-08-06T02:40:40.454Z,1.60
2018-08-06T02:43:08.839Z,1.50
2018-08-06T02:45:37.195Z,1.73
2018-08-06T02:48:05.868Z,1.60
2018-08-06T02:50:34.188Z,1.70
2018-08-06T02:53:02.640Z,1.60
2018-08-06T02:55:30.984Z,1.50
2018-08-06T02:57:59.328Z,1.43
2018-08-06T03:00:27.700Z,2.20
2018-08-06T03:02:56.061Z,1.50
2018-08-06T03:05:24.442Z,1.57
2018-08-06T03:07:52.755Z,1.53
2018-08-06T03:10:21.076Z,1.40
2018-08-06T03:12:49.412Z,1.40
2018-08-06T03:15:17.808Z,1.63
2018-08-06T03:17:46.236Z,1.50
2018-08-06T03:20:14.823Z,1.60
2018-08-06T03:22:43.448Z,1.63
2018-08-06T03:25:13.625Z,1.80
2018-08-06T03:27:42.828Z,1.40
2018-08-06T03:30:13.278Z,1.73
2018-08-06T03:32:42.111Z,1.70
2018-08-06T03:35:11.716Z,1.67
2018-08-06T03:37:40.126Z,1.53
2018-08-06T03:40:09.614Z,1.60
2018-08-06T03:42:38.048Z,1.43
2018-08-06T03:45:07.890Z,1.30
2018-08-06T03:47:36.431Z,1.50
2018-08-06T03:50:05.860Z,1.67
2018-08-06T03:52:34.370Z,1.80
2018-08-06T03:55:02.699Z,1.80
2018-08-06T03:57:31.030Z,1.47
2018-08-06T03:59:59.488Z,1.90
2018-08-06T04:02:27.571Z,1.70
2018-08-06T04:04:55.940Z,1.63
2018-08-06T04:07:24.338Z,1.77
2018-08-06T04:09:53.002Z,1.80
2018-08-06T04:12:21.324Z,1.77
2018-08-06T04:14:49.663Z,1.80
2018-08-06T04:17:18.025Z,1.80
2018-08-06T04:19:46.424Z,1.70
2018-08-06T04:22:14.815Z,1.77
2018-08-06T04:24:43.158Z,1.63
2018-08-06T04:27:11.512Z,1.80
2018-08-06T04:29:39.925Z,1.70
2018-08-06T04:32:08.303Z,2.00
2018-08-06T04:34:36.652Z,2.00
2018-08-06T04:37:05.031Z,1.93
2018-08-06T04:39:33.374Z,1.70
2018-08-06T04:42:01.758Z,1.90
2018-08-06T04:44:30.362Z,1.60
2018-08-06T04:46:58.752Z,1.60
2018-08-06T04:49:27.085Z,1.87
2018-08-06T04:51:55.518Z,1.80
2018-08-06T04:54:23.855Z,1.80
2018-08-06T04:56:52.233Z,2.00
2018-08-06T04:59:20.580Z,2.07
2018-08-06T05:01:48.914Z,1.97
2018-08-06T05:04:17.280Z,1.83
2018-08-06T05:06:45.650Z,1.70
2018-08-06T05:09:19.593Z,1.90
2018-08-06T05:11:48.276Z,1.83
2018-08-06T05:14:16.621Z,2.40
2018-08-06T05:16:45.209Z,2.27
2018-08-06T05:19:13.627Z,2.30
2018-08-06T05:21:41.964Z,2.30
2018-08-06T05:24:10.388Z,2.20
2018-08-06T05:26:38.763Z,1.97
2018-08-06T05:29:07.174Z,2.60
2018-08-06T05:31:37.625Z,2.30
2018-08-06T05:34:06.484Z,2.17
2018-08-06T05:36:34.803Z,2.03
2018-08-06T05:39:03.385Z,2.30
2018-08-06T05:41:31.832Z,2.20
2018-08-06T05:44:00.149Z,2.30
2018-08-06T05:46:28.532Z,2.30
2018-08-06T05:48:56.914Z,2.30
2018-08-06T05:51:25.281Z,2.07
2018-08-06T05:53:53.609Z,2.13
2018-08-06T05:56:21.955Z,2.90
2018-08-06T05:58:50.664Z,2.93
2018-08-06T06:01:19.054Z,2.87
2018-08-06T06:03:47.410Z,2.60
2018-08-06T06:06:15.739Z,2.53
2018-08-06T06:08:44.079Z,2.60
2018-08-06T06:11:12.459Z,2.50
2018-08-06T06:13:40.816Z,2.60
2018-08-06T06:16:09.444Z,2.57
2018-08-06T06:18:37.781Z,2.83
2018-08-06T06:21:06.154Z,2.93
2018-08-06T06:23:34.493Z,2.50
2018-08-06T06:26:02.841Z,3.17
2018-08-06T06:28:31.225Z,2.50
2018-08-06T06:30:59.505Z,2.37
2018-08-06T06:33:28.050Z,2.90
2018-08-06T06:35:56.454Z,2.60
2018-08-06T06:38:24.781Z,2.97
2018-08-06T06:40:53.116Z,2.87
2018-08-06T06:43:21.453Z,2.83
2018-08-06T06:45:49.766Z,3.00
2018-08-06T06:48:18.105Z,2.27
2018-08-06T06:50:46.514Z,2.70
2018-08-06T06:53:14.899Z,2.90
2018-08-06T06:55:43.272Z,3.30
2018-08-06T06:58:11.613Z,2.93
2018-08-06T07:00:39.941Z,2.80
2018-08-06T07:03:08.434Z,2.57
2018-08-06T07:05:36.747Z,2.30
2018-08-06T07:08:05.108Z,2.43
2018-08-06T07:10:33.572Z,2.60
2018-08-06T07:13:01.932Z,2.40
2018-08-06T07:15:30.264Z,2.43
2018-08-06T07:17:58.611Z,2.27
2018-08-06T07:20:27.023Z,2.63
2018-08-06T07:22:55.349Z,2.30
2018-08-06T07:25:23.459Z,2.37
2018-08-06T07:27:51.813Z,2.37
2018-08-06T07:30:20.146Z,2.53
2018-08-06T07:32:48.529Z,2.33
2018-08-06T07:35:17.012Z,2.30
2018-08-06T07:37:45.399Z,2.23
2018-08-06T07:40:14.794Z,1.97
2018-08-06T07:42:43.252Z,2.50
2018-08-06T07:45:17.160Z,2.40
2018-08-06T07:47:46.024Z,2.07
2018-08-06T07:50:16.455Z,2.37
2018-08-06T07:52:44.865Z,2.50
2018-08-06T07:55:13.216Z,2.50
2018-08-06T07:57:41.669Z,2.40
2018-08-06T08:00:18.614Z,1.93
2018-08-06T08:02:46.952Z,2.40
2018-08-06T08:05:16.578Z,2.43
2018-08-06T08:07:46.319Z,2.03
2018-08-06T08:10:18.062Z,2.30
2018-08-06T08:12:46.955Z,2.10
2018-08-06T08:15:18.712Z,2.10
2018-08-06T08:17:50.295Z,2.30
2018-08-06T08:20:18.988Z,2.50
2018-08-06T08:22:47.393Z,2.30
2018-08-06T08:25:17.619Z,2.10
2018-08-06T08:27:46.104Z,2.20
2018-08-06T08:30:15.541Z,1.83
2018-08-06T08:32:43.886Z,2.30
2018-08-06T08:35:14.251Z,2.33
2018-08-06T08:37:42.863Z,2.03
2018-08-06T08:40:12.632Z,2.20
2018-08-06T08:42:40.933Z,2.17
2018-08-06T08:45:12.080Z,2.17
2018-08-06T08:47:41.311Z,2.00
2018-08-06T08:50:11.912Z,1.80
2018-08-06T08:52:41.104Z,2.00
2018-08-06T08:55:10.954Z,2.20
2018-08-06T08:57:39.507Z,2.30
2018-08-06T09:00:13.848Z,2.27
2018-08-06T09:02:43.336Z,2.10
2018-08-06T09:05:11.744Z,2.10
2018-08-06T09:07:40.094Z,2.47
2018-08-06T09:10:10.180Z,2.70
2018-08-06T09:12:39.043Z,2.73
2018-08-06T09:15:11.016Z,2.70
2018-08-06T09:17:39.365Z,2.40
2018-08-06T09:20:07.876Z,2.60
2018-08-06T09:22:36.556Z,2.20
2018-08-06T09:25:05.797Z,2.60
2018-08-06T09:27:41.794Z,2.33
2018-08-06T09:30:14.814Z,2.50
2018-08-06T09:32:44.824Z,2.27
2018-08-06T09:35:13.897Z,2.30
2018-08-06T09:37:42.382Z,2.43
2018-08-06T09:40:13.069Z,2.50
2018-08-06T09:42:42.110Z,2.17
2018-08-06T09:45:13.580Z,2.30
2018-08-06T09:47:43.185Z,2.23
2018-08-06T09:50:12.385Z,2.23
2018-08-06T09:52:41.479Z,2.10
2018-08-06T09:55:12.728Z,2.20
2018-08-06T09:57:41.720Z,2.23
2018-08-06T10:00:22.260Z,2.07
2018-08-06T10:02:51.824Z,2.40
2018-08-06T10:05:21.628Z,2.33
2018-08-06T10:07:49.969Z,2.10
2018-08-06T10:10:18.332Z,2.10
2018-08-06T10:12:47.087Z,2.20
2018-08-06T10:15:15.953Z,2.40
2018-08-06T10:17:45.290Z,2.20
2018-08-06T10:20:16.842Z,2.20
2018-08-06T10:22:45.291Z,2.67
2018-08-06T10:25:14.748Z,2.40
2018-08-06T10:27:44.036Z,3.40
2018-08-06T10:30:16.166Z,3.10
2018-08-06T10:32:45.113Z,2.57
2018-08-06T10:35:14.691Z,3.20
2018-08-06T10:37:43.195Z,2.80
2018-08-06T10:40:14.337Z,2.83
2018-08-06T10:42:43.641Z,2.83
2018-08-06T10:45:13.665Z,2.60
2018-08-06T10:47:42.438Z,2.80
2018-08-06T10:50:11.247Z,2.83
2018-08-06T10:52:39.672Z,2.50
2018-08-06T10:55:09.264Z,2.80
2018-08-06T10:57:38.372Z,2.63
2018-08-06T11:00:14.129Z,2.50
2018-08-06T11:02:42.580Z,2.80
2018-08-06T11:05:12.493Z,2.87
2018-08-06T11:07:40.939Z,2.57
2018-08-06T11:10:11.086Z,2.90
2018-08-06T11:12:40.090Z,2.40
2018-08-06T11:15:12.850Z,2.60
2018-08-06T11:17:41.396Z,2.57
2018-08-06T11:20:11.675Z,2.57
2018-08-06T11:22:40.540Z,2.50
2018-08-06T11:25:10.497Z,2.47
2018-08-06T11:27:39.017Z,2.33
2018-08-06T11:30:12.486Z,2.70
2018-08-06T11:32:40.900Z,2.90
2018-08-06T11:35:10.088Z,2.77
2018-08-06T11:37:38.864Z,2.43
2018-08-06T11:40:08.575Z,2.67
2018-08-06T11:42:37.655Z,2.70
2018-08-06T11:45:06.592Z,2.83
2018-08-06T11:47:35.016Z,2.57
2018-08-06T11:50:03.691Z,2.37
2018-08-06T11:52:32.104Z,2.67
2018-08-06T11:55:00.519Z,2.70
2018-08-06T11:57:28.975Z,2.60
2018-08-06T11:59:57.149Z,3.00
2018-08-06T12:02:26.115Z,2.70
2018-08-06T12:04:54.747Z,3.00
2018-08-06T12:07:22.888Z,2.67
2018-08-06T12:09:51.339Z,2.70
2018-08-06T12:12:20.009Z,2.47
2018-08-06T12:14:48.452Z,3.17
2018-08-06T12:17:16.898Z,3.17
2018-08-06T12:19:45.335Z,2.90
2018-08-06T12:22:13.803Z,3.00
2018-08-06T12:24:42.267Z,3.10
2018-08-06T12:27:10.732Z,2.70
2018-08-06T12:29:39.162Z,2.50
2018-08-06T12:32:07.627Z,3.07
2018-08-06T12:34:36.073Z,2.77
2018-08-06T12:37:04.625Z,2.60
2018-08-06T12:39:33.083Z,3.00
2018-08-06T12:42:01.602Z,2.80
2018-08-06T12:44:33.240Z,2.73
2018-08-06T12:47:01.707Z,2.60
2018-08-06T12:49:30.183Z,2.73
2018-08-06T12:51:58.615Z,2.90
2018-08-06T12:54:27.021Z,2.93
2018-08-06T12:56:55.425Z,3.00
2018-08-06T12:59:23.873Z,2.70
2018-08-06T13:01:52.293Z,3.10
2018-08-06T13:04:20.746Z,2.90
2018-08-06T13:06:49.148Z,2.93
2018-08-06T13:09:17.576Z,2.73
2018-08-06T13:11:46.029Z,2.93
2018-08-06T13:14:14.470Z,3.23
2018-08-06T13:16:42.906Z,3.07
2018-08-06T13:19:11.314Z,3.13
2018-08-06T13:21:39.733Z,3.03
2018-08-06T13:26:42.931Z,2.90
2018-08-06T13:29:11.345Z,2.90
2018-08-06T13:31:39.863Z,3.00
2018-08-06T13:34:08.290Z,3.10
2018-08-06T13:36:36.734Z,3.00
2018-08-06T13:39:10.220Z,3.00
2018-08-06T13:41:38.703Z,2.93
2018-08-06T13:44:07.159Z,3.47
2018-08-06T13:46:35.721Z,3.40
2018-08-06T13:49:04.212Z,3.00
2018-08-06T13:51:32.650Z,3.30
2018-08-06T13:54:01.103Z,3.50
2018-08-06T13:56:29.704Z,3.07
2018-08-06T13:58:58.117Z,2.70
2018-08-06T14:01:26.568Z,3.20
2018-08-06T14:03:55.355Z,2.87
2018-08-06T14:06:23.848Z,3.20
2018-08-06T14:08:52.300Z,3.03
2018-08-06T14:11:20.780Z,3.17
2018-08-06T14:13:49.187Z,3.03
2018-08-06T14:16:17.617Z,3.23
2018-08-06T14:18:46.067Z,3.27
2018-08-06T14:21:14.507Z,3.47
2018-08-06T14:23:42.938Z,3.00
2018-08-06T14:26:11.355Z,3.30
2018-08-06T14:28:43.364Z,3.43
2018-08-06T14:31:11.798Z,3.67
2018-08-06T14:33:40.211Z,3.17
2018-08-06T14:36:08.615Z,3.40
2018-08-06T14:38:37.087Z,3.30
2018-08-06T14:41:05.482Z,3.33
2018-08-06T14:43:33.871Z,3.27
2018-08-06T14:46:02.331Z,3.60
2018-08-06T14:48:30.988Z,3.40
2018-08-06T14:50:59.393Z,3.60
2018-08-06T14:53:27.808Z,3.60
2018-08-06T14:55:56.258Z,3.20
2018-08-06T14:58:24.667Z,3.17
2018-08-06T15:00:53.340Z,3.67
2018-08-06T15:03:21.748Z,3.50
2018-08-06T15:05:50.229Z,3.70
2018-08-06T15:08:18.695Z,3.57
2018-08-06T15:10:47.240Z,3.50
2018-08-06T15:13:15.686Z,3.50
2018-08-06T15:15:44.187Z,3.23
2018-08-06T15:18:12.609Z,3.77
2018-08-06T15:20:41.058Z,3.30
2018-08-06T15:23:09.488Z,3.20
2018-08-06T15:25:38.066Z,3.40
2018-08-06T15:28:06.498Z,3.07
2018-08-06T15:30:34.961Z,3.60
2018-08-06T15:33:03.386Z,3.03
2018-08-06T15:35:31.843Z,3.30
2018-08-06T15:38:00.464Z,3.60
2018-08-06T15:40:28.890Z,3.77
2018-08-06T15:42:57.475Z,3.53
2018-08-06T15:45:25.919Z,3.10
2018-08-06T15:47:54.341Z,3.53
2018-08-06T15:50:22.883Z,3.10
2018-08-06T15:52:51.436Z,3.47
2018-08-06T15:55:19.856Z,3.43
2018-08-06T15:57:48.268Z,3.50
2018-08-06T16:00:18.049Z,3.57
2018-08-06T16:02:46.919Z,3.30
2018-08-06T16:05:15.731Z,3.07
2018-08-06T16:07:44.291Z,3.53
2018-08-06T16:10:13.405Z,3.30
2018-08-06T16:12:42.378Z,3.50
2018-08-06T16:15:12.309Z,3.17
2018-08-06T16:17:41.726Z,3.50
2018-08-06T16:20:12.491Z,3.43
2018-08-06T16:22:42.136Z,3.20
2018-08-06T16:25:11.459Z,3.50
2018-08-06T16:27:39.921Z,3.50
2018-08-06T16:30:13.662Z,3.30
2018-08-06T16:32:42.328Z,3.50
2018-08-06T16:35:11.742Z,3.50
2018-08-06T16:37:40.194Z,3.47
2018-08-06T16:40:09.603Z,3.37
2018-08-06T16:42:38.011Z,3.57
2018-08-06T16:45:07.229Z,3.60
2018-08-06T16:47:36.221Z,3.40
2018-08-06T16:50:05.452Z,3.27
2018-08-06T16:52:34.094Z,3.57
2018-08-06T16:55:02.515Z,3.23
2018-08-06T16:57:30.923Z,3.50
2018-08-06T16:59:59.323Z,3.40
2018-08-06T17:02:28.023Z,3.30
2018-08-06T17:04:56.471Z,3.60
2018-08-06T17:07:24.912Z,3.53
2018-08-06T17:09:53.363Z,3.60
2018-08-06T17:12:21.773Z,3.50
2018-08-06T17:14:50.219Z,3.60
2018-08-06T17:17:18.623Z,3.67
2018-08-06T17:19:47.035Z,3.90
2018-08-06T17:22:15.500Z,3.47
2018-08-06T17:24:43.945Z,3.60
2018-08-06T17:27:12.373Z,3.50
2018-08-06T17:29:40.840Z,3.63
2018-08-06T17:32:09.425Z,4.17
2018-08-06T17:34:37.957Z,3.60
2018-08-06T17:37:06.405Z,3.80
2018-08-06T17:39:34.787Z,3.93
2018-08-06T17:42:03.200Z,3.93
2018-08-06T17:44:31.630Z,3.67
2018-08-06T17:46:59.758Z,4.00
2018-08-06T17:49:28.190Z,4.17
2018-08-06T17:51:56.640Z,3.83
2018-08-06T17:54:25.132Z,3.70
2018-08-06T17:56:53.556Z,3.60
2018-08-06T17:59:21.991Z,3.70
2018-08-06T18:01:50.409Z,4.17
2018-08-06T18:04:18.849Z,4.00
2018-08-06T18:06:47.887Z,3.30
2018-08-06T18:09:16.345Z,3.90
2018-08-06T18:11:44.456Z,3.70
2018-08-06T18:14:12.903Z,3.70
2018-08-06T18:16:41.356Z,3.60
2018-08-06T18:19:09.783Z,3.20
2018-08-06T18:21:38.249Z,3.30
2018-08-06T18:24:06.647Z,3.60
2018-08-06T18:26:35.091Z,3.27
2018-08-06T18:29:03.556Z,3.87
2018-08-06T18:31:32.039Z,3.33
2018-08-06T18:34:00.431Z,3.43
2018-08-06T18:36:28.953Z,3.40
2018-08-06T18:38:57.068Z,3.30
2018-08-06T18:41:25.477Z,3.40
2018-08-06T18:43:53.944Z,3.40
2018-08-06T18:46:22.494Z,3.27
2018-08-06T18:48:50.912Z,3.53
2018-08-06T18:51:19.378Z,3.60
2018-08-06T18:53:47.783Z,3.43
2018-08-06T18:56:19.548Z,3.13
2018-08-06T18:58:47.993Z,3.07
2018-08-06T19:01:16.451Z,3.30
2018-08-06T19:03:44.610Z,3.07
2018-08-06T19:06:13.081Z,3.27
2018-08-06T19:08:41.531Z,3.10
2018-08-06T19:11:10.071Z,3.20
2018-08-06T19:13:43.851Z,3.37
2018-08-06T19:16:12.289Z,3.50
2018-08-06T19:18:45.991Z,3.30
2018-08-06T19:21:14.430Z,3.40
2018-08-06T19:23:42.886Z,3.17
2018-08-06T19:26:11.431Z,2.90
2018-08-06T19:28:39.883Z,3.00
2018-08-06T19:31:13.895Z,3.20
2018-08-06T19:33:42.549Z,2.80
2018-08-06T19:36:11.010Z,2.70
2018-08-06T19:38:39.489Z,2.97
2018-08-06T19:41:07.907Z,2.83
2018-08-06T19:43:37.328Z,3.03
2018-08-06T19:46:06.323Z,3.20
2018-08-06T19:48:34.719Z,3.00
2018-08-06T19:51:03.195Z,3.13
2018-08-06T19:53:31.676Z,2.80
2018-08-06T19:56:05.482Z,2.90
2018-08-06T19:58:40.365Z,2.80
2018-08-06T20:01:08.788Z,2.90
2018-08-06T20:03:37.242Z,2.90
2018-08-06T20:06:11.286Z,3.00
2018-08-06T20:08:39.721Z,2.97
2018-08-06T20:11:08.183Z,3.00
2018-08-06T20:13:36.664Z,3.13
2018-08-06T20:16:05.088Z,2.90
2018-08-06T20:18:33.536Z,2.50
2018-08-06T20:21:01.956Z,3.03
2018-08-06T20:23:30.397Z,3.07
2018-08-06T20:25:58.823Z,2.80
2018-08-06T20:28:27.287Z,3.00
2018-08-06T20:30:55.711Z,2.87
2018-08-06T20:33:24.120Z,3.10
2018-08-06T20:35:52.552Z,2.80
2018-08-06T20:38:20.977Z,2.70
2018-08-06T20:40:49.431Z,3.00
2018-08-06T20:43:17.892Z,2.70
2018-08-06T20:45:46.327Z,3.00
2018-08-06T20:48:14.739Z,3.27
2018-08-06T20:50:43.098Z,2.60
2018-08-06T20:53:11.492Z,2.40
2018-08-06T20:55:39.812Z,2.80
2018-08-06T20:58:08.184Z,2.90
2018-08-06T21:00:36.617Z,2.67
2018-08-06T21:03:05.251Z,2.80
2018-08-06T21:05:33.642Z,3.10
2018-08-06T21:08:02.024Z,2.90
2018-08-06T21:10:30.471Z,2.90
2018-08-06T21:12:58.888Z,2.70
2018-08-06T21:15:27.297Z,2.57
2018-08-06T21:17:55.789Z,2.83
2018-08-06T21:20:24.189Z,2.93
2018-08-06T21:22:52.589Z,3.10
2018-08-06T21:25:21.004Z,2.80
2018-08-06T21:27:49.619Z,3.07
2018-08-06T21:30:20.767Z,3.03
2018-08-06T21:32:52.220Z,2.90
2018-08-06T21:35:21.702Z,2.67
2018-08-06T21:37:51.266Z,3.07
2018-08-06T21:40:20.550Z,2.53
2018-08-06T21:42:49.078Z,2.63
2018-08-06T21:45:17.583Z,2.90
2018-08-06T21:47:46.107Z,2.70
2018-08-06T21:50:15.001Z,2.80
2018-08-06T21:52:43.487Z,2.73
2018-08-06T21:55:12.211Z,2.70
2018-08-06T21:57:40.578Z,2.83
2018-08-06T22:00:43.281Z,2.57
2018-08-06T22:03:16.862Z,2.60
2018-08-06T22:05:45.759Z,2.70
2018-08-06T22:08:14.185Z,2.80
2018-08-06T22:10:42.703Z,2.63
2018-08-06T22:13:11.428Z,2.60
2018-08-06T22:15:39.882Z,2.50
2018-08-06T22:18:09.753Z,2.80
2018-08-06T22:20:38.156Z,2.47
2018-08-06T22:23:06.601Z,2.90
2018-08-06T22:25:35.047Z,2.80
2018-08-06T22:28:04.438Z,2.80
2018-08-06T22:30:32.797Z,2.57
2018-08-06T22:33:01.181Z,2.73
2018-08-06T22:35:29.655Z,2.87
2018-08-06T22:37:58.082Z,2.90
2018-08-06T22:40:26.489Z,2.97
2018-08-06T22:42:54.867Z,3.10
2018-08-06T22:45:23.279Z,2.87
2018-08-06T22:47:51.657Z,2.87
2018-08-06T22:50:20.146Z,2.63
2018-08-06T22:52:48.563Z,3.00
2018-08-06T22:55:16.920Z,2.80
2018-08-06T22:57:45.310Z,3.07
2018-08-06T23:00:15.638Z,3.10
2018-08-06T23:02:44.387Z,2.93
2018-08-06T23:05:14.513Z,2.60
2018-08-06T23:07:43.213Z,2.90
2018-08-06T23:10:14.094Z,2.90
2018-08-06T23:12:42.521Z,3.00
2018-08-06T23:15:12.905Z,2.67
2018-08-06T23:17:41.654Z,3.00
2018-08-06T23:20:10.352Z,2.67
2018-08-06T23:22:39.109Z,2.70
2018-08-06T23:25:08.001Z,2.90
2018-08-06T23:27:37.325Z,2.93
2018-08-06T23:30:09.397Z,2.43
2018-08-06T23:32:37.757Z,2.90
2018-08-06T23:35:07.833Z,2.63
2018-08-06T23:37:36.199Z,2.60
2018-08-06T23:40:05.285Z,2.43
2018-08-06T23:42:33.419Z,2.80
2018-08-06T23:45:01.833Z,2.67
2018-08-06T23:47:30.263Z,2.57
2018-08-06T23:49:58.659Z,2.87
2018-08-06T23:52:27.051Z,2.50
2018-08-06T23:54:55.402Z,2.60
2018-08-06T23:57:23.809Z,2.40
2018-08-06T23:59:52.155Z,2.60
